UAL2145 KEWR-KORD
Flight info
| Callsign | UAL2145 |
|---|---|
| Flight time | N/A |
| Altitude | 36000 |
| Route | GAYEL J95 CFB RAAKK Q436 KAYYS WYNDE3 |
| Aircraft | B752/M-SDE2E3FGHIJ3J4J7RWXY/LB1 |
Departure
| Time | 2026-04-22 09:13 |
|---|---|
| Airport | Newark Liberty International Airport (KEWR) |
Arrival
| Time | N/A |
|---|---|
| Airport | Chicago O'Hare International Airport (KORD) |
| Time | Latitude | Longitude | Altitude | Speed | Heading |
|---|---|---|---|---|---|
| 2026-04-22 07:53 | 40.69420 | -74.17189 | 26 ft | 0 kts | 256° |
| 2026-04-22 08:58 | 40.69421 | -74.17188 | 25 ft | 1 kts | 259° |
| 2026-04-22 08:58 | 40.69427 | -74.17158 | 25 ft | 3 kts | 242° |
| 2026-04-22 08:58 | 40.69442 | -74.17136 | 25 ft | 2 kts | 205° |
| 2026-04-22 08:58 | 40.69461 | -74.17130 | 25 ft | 4 kts | 185° |
| 2026-04-22 08:59 | 40.69467 | -74.17120 | 25 ft | 3 kts | 349° |
| 2026-04-22 08:59 | 40.69456 | -74.17106 | 25 ft | 2 kts | 306° |
| 2026-04-22 08:59 | 40.69453 | -74.17091 | 25 ft | 1 kts | 251° |
| 2026-04-22 08:59 | 40.69461 | -74.17078 | 25 ft | 0 kts | 204° |
| 2026-04-22 09:00 | 40.69472 | -74.17072 | 25 ft | 2 kts | 193° |
| 2026-04-22 09:00 | 40.69485 | -74.17071 | 25 ft | 0 kts | 173° |
| 2026-04-22 09:00 | 40.69449 | -74.17069 | 25 ft | 5 kts | 180° |
| 2026-04-22 09:01 | 40.69432 | -74.17069 | 25 ft | 0 kts | 181° |
| 2026-04-22 09:05 | 40.69404 | -74.17070 | 25 ft | 11 kts | 184° |
| 2026-04-22 09:06 | 40.69311 | -74.17099 | 25 ft | 13 kts | 202° |
| 2026-04-22 09:06 | 40.69247 | -74.17121 | 25 ft | 5 kts | 161° |
| 2026-04-22 09:06 | 40.69219 | -74.17088 | 25 ft | 9 kts | 124° |
| 2026-04-22 09:06 | 40.69218 | -74.17044 | 25 ft | 1 kts | 19° |
| 2026-04-22 09:07 | 40.69321 | -74.16973 | 25 ft | 22 kts | 25° |
| 2026-04-22 09:07 | 40.69445 | -74.16893 | 25 ft | 18 kts | 27° |
| 2026-04-22 09:07 | 40.69549 | -74.16826 | 25 ft | 14 kts | 29° |
| 2026-04-22 09:07 | 40.69596 | -74.16789 | 25 ft | 0 kts | 30° |
| 2026-04-22 09:08 | 40.69611 | -74.16780 | 25 ft | 7 kts | 20° |
| 2026-04-22 09:08 | 40.69706 | -74.16729 | 25 ft | 16 kts | 24° |
| 2026-04-22 09:08 | 40.69808 | -74.16664 | 25 ft | 14 kts | 25° |
| 2026-04-22 09:08 | 40.69891 | -74.16612 | 25 ft | 11 kts | 27° |
| 2026-04-22 09:09 | 40.69958 | -74.16569 | 25 ft | 9 kts | 26° |
| 2026-04-22 09:09 | 40.70014 | -74.16531 | 25 ft | 10 kts | 28° |
| 2026-04-22 09:09 | 40.70061 | -74.16465 | 25 ft | 9 kts | 81° |
| 2026-04-22 09:09 | 40.70045 | -74.16367 | 25 ft | 14 kts | 98° |
| 2026-04-22 09:10 | 40.70046 | -74.16215 | 25 ft | 14 kts | 95° |
| 2026-04-22 09:10 | 40.70031 | -74.16148 | 25 ft | 1 kts | 114° |
| 2026-04-22 09:10 | 40.70030 | -74.16144 | 25 ft | 1 kts | 115° |
| 2026-04-22 09:11 | 40.70013 | -74.16102 | 25 ft | 12 kts | 119° |
| 2026-04-22 09:11 | 40.69929 | -74.16042 | 25 ft | 16 kts | 208° |
| 2026-04-22 09:11 | 40.69906 | -74.16059 | 25 ft | 0 kts | 207° |
| 2026-04-22 09:11 | 40.69906 | -74.16060 | 25 ft | 0 kts | 207° |
| 2026-04-22 09:12 | 40.69850 | -74.16096 | 25 ft | 37 kts | 206° |
| 2026-04-22 09:12 | 40.69389 | -74.16388 | 26 ft | 111 kts | 206° |
| 2026-04-22 09:13 | 40.68504 | -74.16942 | 101 ft | 168 kts | 204° |
| 2026-04-22 09:13 | 40.67411 | -74.17563 | 914 ft | 174 kts | 202° |
| 2026-04-22 09:13 | 40.66319 | -74.18060 | 1962 ft | 172 kts | 189° |
| 2026-04-22 09:13 | 40.65163 | -74.18025 | 3023 ft | 172 kts | 161° |
| 2026-04-22 09:14 | 40.64343 | -74.16954 | 4050 ft | 178 kts | 117° |
| 2026-04-22 09:14 | 40.64245 | -74.15243 | 4463 ft | 208 kts | 74° |
| 2026-04-22 09:14 | 40.65067 | -74.13620 | 4889 ft | 226 kts | 33° |
| 2026-04-22 09:14 | 40.66540 | -74.12859 | 5327 ft | 234 kts | 355° |
| 2026-04-22 09:15 | 40.68122 | -74.13154 | 5954 ft | 238 kts | 339° |
| 2026-04-22 09:15 | 40.69790 | -74.13654 | 6685 ft | 250 kts | 340° |
| 2026-04-22 09:15 | 40.71471 | -74.14146 | 7596 ft | 251 kts | 340° |
| 2026-04-22 09:15 | 40.73126 | -74.14644 | 8529 ft | 250 kts | 341° |
| 2026-04-22 09:16 | 40.74824 | -74.15160 | 9436 ft | 250 kts | 341° |
| 2026-04-22 09:16 | 40.76519 | -74.15682 | 10075 ft | 261 kts | 341° |
| 2026-04-22 09:16 | 40.78356 | -74.16254 | 10500 ft | 281 kts | 341° |
| 2026-04-22 09:16 | 40.80326 | -74.16864 | 10934 ft | 299 kts | 341° |
| 2026-04-22 09:17 | 40.82413 | -74.17509 | 11310 ft | 318 kts | 342° |
| 2026-04-22 09:17 | 40.84604 | -74.18185 | 11969 ft | 326 kts | 342° |
| 2026-04-22 09:17 | 40.86799 | -74.18862 | 12764 ft | 329 kts | 342° |
| 2026-04-22 09:17 | 40.89040 | -74.19556 | 13524 ft | 333 kts | 342° |
| 2026-04-22 09:18 | 40.91294 | -74.20255 | 14307 ft | 336 kts | 343° |
| 2026-04-22 09:18 | 40.93589 | -74.20967 | 15020 ft | 340 kts | 342° |
| 2026-04-22 09:18 | 40.95866 | -74.21674 | 15720 ft | 344 kts | 342° |
| 2026-04-22 09:18 | 40.98185 | -74.22395 | 16452 ft | 347 kts | 343° |
| 2026-04-22 09:19 | 41.00559 | -74.23135 | 17083 ft | 352 kts | 342° |
| 2026-04-22 09:19 | 41.02951 | -74.23880 | 17798 ft | 354 kts | 343° |
| 2026-04-22 09:19 | 41.05334 | -74.24622 | 18445 ft | 358 kts | 343° |
| 2026-04-22 09:19 | 41.07767 | -74.25379 | 19154 ft | 360 kts | 343° |
| 2026-04-22 09:20 | 41.10183 | -74.26140 | 19548 ft | 347 kts | 341° |
| 2026-04-22 09:20 | 41.12503 | -74.26890 | 19527 ft | 343 kts | 341° |
| 2026-04-22 09:20 | 41.14851 | -74.27648 | 19565 ft | 343 kts | 341° |
| 2026-04-22 09:20 | 41.17164 | -74.28385 | 19579 ft | 343 kts | 342° |
| 2026-04-22 09:21 | 41.19500 | -74.29124 | 19579 ft | 344 kts | 341° |
| 2026-04-22 09:21 | 41.21809 | -74.29851 | 19582 ft | 344 kts | 342° |
| 2026-04-22 09:21 | 41.24147 | -74.30587 | 19592 ft | 344 kts | 341° |
| 2026-04-22 09:21 | 41.26456 | -74.31316 | 19563 ft | 344 kts | 341° |
| 2026-04-22 09:22 | 41.28815 | -74.32056 | 19568 ft | 344 kts | 342° |
| 2026-04-22 09:22 | 41.31157 | -74.32795 | 19563 ft | 344 kts | 341° |
| 2026-04-22 09:22 | 41.33480 | -74.33524 | 19524 ft | 345 kts | 342° |
| 2026-04-22 09:22 | 41.35796 | -74.34253 | 19530 ft | 345 kts | 341° |
| 2026-04-22 09:23 | 41.38094 | -74.35123 | 19527 ft | 340 kts | 332° |
| 2026-04-22 09:23 | 41.40048 | -74.36782 | 19555 ft | 330 kts | 313° |
| 2026-04-22 09:23 | 41.41510 | -74.39105 | 19616 ft | 325 kts | 304° |
| 2026-04-22 09:23 | 41.42794 | -74.41576 | 19612 ft | 325 kts | 302° |
| 2026-04-22 09:24 | 41.44041 | -74.44123 | 19600 ft | 325 kts | 301° |
| 2026-04-22 09:24 | 41.45231 | -74.46674 | 19600 ft | 325 kts | 300° |
| 2026-04-22 09:24 | 41.46403 | -74.49264 | 19611 ft | 325 kts | 300° |
| 2026-04-22 09:24 | 41.47552 | -74.51853 | 19610 ft | 326 kts | 300° |
| 2026-04-22 09:25 | 41.48695 | -74.54456 | 19602 ft | 326 kts | 299° |
| 2026-04-22 09:25 | 41.49831 | -74.57063 | 19601 ft | 326 kts | 299° |
| 2026-04-22 09:25 | 41.50967 | -74.59679 | 19590 ft | 326 kts | 299° |
| 2026-04-22 09:25 | 41.52096 | -74.62286 | 19579 ft | 326 kts | 299° |
| 2026-04-22 09:26 | 41.53242 | -74.64941 | 19567 ft | 327 kts | 299° |
| 2026-04-22 09:26 | 41.54364 | -74.67541 | 19568 ft | 327 kts | 298° |
| 2026-04-22 09:26 | 41.55509 | -74.70204 | 19574 ft | 327 kts | 298° |
| 2026-04-22 09:26 | 41.56635 | -74.72822 | 19575 ft | 327 kts | 298° |
| 2026-04-22 09:27 | 41.57760 | -74.75442 | 19572 ft | 327 kts | 298° |
| 2026-04-22 09:27 | 41.58893 | -74.78080 | 19565 ft | 327 kts | 298° |
| 2026-04-22 09:27 | 41.60039 | -74.80755 | 19561 ft | 328 kts | 298° |
| 2026-04-22 09:27 | 41.61160 | -74.83375 | 19568 ft | 328 kts | 298° |
| 2026-04-22 09:28 | 41.62299 | -74.86036 | 19561 ft | 328 kts | 298° |
| 2026-04-22 09:28 | 41.63427 | -74.88678 | 19563 ft | 328 kts | 298° |
| 2026-04-22 09:28 | 41.64554 | -74.91318 | 19561 ft | 328 kts | 298° |
| 2026-04-22 09:28 | 41.65675 | -74.93947 | 19565 ft | 328 kts | 298° |
| 2026-04-22 09:29 | 41.66809 | -74.96607 | 19566 ft | 328 kts | 298° |
| 2026-04-22 09:29 | 41.67930 | -74.99239 | 19559 ft | 328 kts | 298° |
| 2026-04-22 09:29 | 41.69064 | -75.01905 | 19558 ft | 328 kts | 298° |
| 2026-04-22 09:29 | 41.70186 | -75.04545 | 19553 ft | 328 kts | 298° |
| 2026-04-22 09:30 | 41.71315 | -75.07204 | 19559 ft | 329 kts | 298° |
| 2026-04-22 09:30 | 41.72442 | -75.09858 | 19554 ft | 330 kts | 298° |
| 2026-04-22 09:30 | 41.73578 | -75.12537 | 19549 ft | 329 kts | 298° |
| 2026-04-22 09:30 | 41.74691 | -75.15166 | 19543 ft | 324 kts | 298° |
| 2026-04-22 09:31 | 41.75805 | -75.17796 | 19531 ft | 320 kts | 298° |
| 2026-04-22 09:31 | 41.76897 | -75.20378 | 19518 ft | 317 kts | 298° |
| 2026-04-22 09:31 | 41.77965 | -75.22907 | 19505 ft | 313 kts | 298° |
| 2026-04-22 09:31 | 41.79029 | -75.25427 | 19493 ft | 310 kts | 298° |
| 2026-04-22 09:32 | 41.80088 | -75.27941 | 19470 ft | 307 kts | 298° |
| 2026-04-22 09:32 | 41.81129 | -75.30410 | 19464 ft | 304 kts | 298° |
| 2026-04-22 09:32 | 41.82168 | -75.32880 | 19455 ft | 302 kts | 298° |
| 2026-04-22 09:32 | 41.83190 | -75.35310 | 19445 ft | 299 kts | 298° |
| 2026-04-22 09:33 | 41.84213 | -75.37745 | 19429 ft | 297 kts | 298° |
| 2026-04-22 09:33 | 41.85217 | -75.40136 | 19412 ft | 295 kts | 298° |
| 2026-04-22 09:33 | 41.86231 | -75.42553 | 19401 ft | 293 kts | 298° |
| 2026-04-22 09:33 | 41.87225 | -75.44923 | 19390 ft | 292 kts | 298° |
| 2026-04-22 09:34 | 41.88208 | -75.47273 | 19372 ft | 290 kts | 298° |
| 2026-04-22 09:34 | 41.89200 | -75.49641 | 19364 ft | 288 kts | 298° |
| 2026-04-22 09:34 | 41.90177 | -75.51977 | 19353 ft | 287 kts | 298° |
| 2026-04-22 09:35 | 41.92122 | -75.56635 | 19320 ft | 284 kts | 298° |
| 2026-04-22 09:35 | 41.93074 | -75.58916 | 19310 ft | 283 kts | 298° |
| 2026-04-22 09:35 | 41.94038 | -75.61230 | 19294 ft | 282 kts | 298° |
| 2026-04-22 09:35 | 41.95002 | -75.63545 | 19280 ft | 281 kts | 298° |
| 2026-04-22 09:36 | 41.95950 | -75.65823 | 19270 ft | 280 kts | 297° |
| 2026-04-22 09:36 | 41.96898 | -75.68100 | 19270 ft | 279 kts | 297° |
| 2026-04-22 09:36 | 41.97839 | -75.70364 | 19268 ft | 278 kts | 297° |
| 2026-04-22 09:36 | 41.98783 | -75.72638 | 19266 ft | 277 kts | 297° |
| 2026-04-22 09:37 | 41.99716 | -75.74887 | 19261 ft | 277 kts | 297° |
| 2026-04-22 09:37 | 42.00661 | -75.77166 | 19257 ft | 276 kts | 297° |
| 2026-04-22 09:37 | 42.01593 | -75.79415 | 19253 ft | 275 kts | 297° |
| 2026-04-22 09:37 | 42.02518 | -75.81650 | 19249 ft | 275 kts | 297° |
| 2026-04-22 09:38 | 42.03443 | -75.83886 | 19240 ft | 274 kts | 297° |
| 2026-04-22 09:38 | 42.04367 | -75.86121 | 19228 ft | 274 kts | 297° |
| 2026-04-22 09:38 | 42.05287 | -75.88348 | 19215 ft | 273 kts | 297° |
| 2026-04-22 09:38 | 42.06213 | -75.90593 | 19205 ft | 273 kts | 297° |
| 2026-04-22 09:39 | 42.07126 | -75.92805 | 19175 ft | 272 kts | 297° |
| 2026-04-22 09:39 | 42.08049 | -75.95045 | 19171 ft | 272 kts | 297° |
| 2026-04-22 09:39 | 42.08958 | -75.97253 | 19143 ft | 271 kts | 297° |
| 2026-04-22 09:39 | 42.09866 | -75.99460 | 19126 ft | 271 kts | 297° |
| 2026-04-22 09:40 | 42.10784 | -76.01693 | 19137 ft | 271 kts | 297° |
| 2026-04-22 09:40 | 42.11687 | -76.03889 | 19148 ft | 270 kts | 297° |
| 2026-04-22 09:40 | 42.12598 | -76.06109 | 19133 ft | 270 kts | 297° |
| 2026-04-22 09:40 | 42.13511 | -76.08332 | 19145 ft | 270 kts | 297° |
| 2026-04-22 09:41 | 42.14421 | -76.10553 | 19152 ft | 269 kts | 297° |
| 2026-04-22 09:41 | 42.15305 | -76.12755 | 19150 ft | 269 kts | 292° |
| 2026-04-22 09:41 | 42.15776 | -76.15163 | 19212 ft | 267 kts | 278° |
| 2026-04-22 09:41 | 42.16032 | -76.17622 | 19219 ft | 266 kts | 279° |
| 2026-04-22 09:42 | 42.16301 | -76.20093 | 19218 ft | 266 kts | 279° |
| 2026-04-22 09:42 | 42.16557 | -76.22555 | 19223 ft | 266 kts | 279° |
| 2026-04-22 09:42 | 42.16810 | -76.25029 | 19218 ft | 266 kts | 279° |
| 2026-04-22 09:42 | 42.17057 | -76.27496 | 19214 ft | 266 kts | 279° |
| 2026-04-22 09:43 | 42.17301 | -76.29950 | 19211 ft | 266 kts | 279° |
| 2026-04-22 09:43 | 42.17548 | -76.32448 | 19206 ft | 266 kts | 279° |
| 2026-04-22 09:43 | 42.17788 | -76.34888 | 19202 ft | 266 kts | 279° |
| 2026-04-22 09:43 | 42.18032 | -76.37377 | 19200 ft | 266 kts | 279° |
| 2026-04-22 09:44 | 42.18274 | -76.39861 | 19195 ft | 266 kts | 279° |
| 2026-04-22 09:44 | 42.18515 | -76.42331 | 19192 ft | 266 kts | 279° |
| 2026-04-22 09:44 | 42.18752 | -76.44779 | 19189 ft | 266 kts | 279° |
| 2026-04-22 09:44 | 42.18991 | -76.47245 | 19190 ft | 266 kts | 278° |
| 2026-04-22 09:45 | 42.19231 | -76.49723 | 19180 ft | 266 kts | 278° |
| 2026-04-22 09:45 | 42.19471 | -76.52224 | 19168 ft | 266 kts | 278° |
| 2026-04-22 09:45 | 42.19707 | -76.54678 | 19162 ft | 266 kts | 278° |
| 2026-04-22 09:45 | 42.19946 | -76.57163 | 19155 ft | 266 kts | 278° |
| 2026-04-22 09:46 | 42.20181 | -76.59627 | 19143 ft | 266 kts | 279° |
| 2026-04-22 09:46 | 42.20417 | -76.62096 | 19135 ft | 266 kts | 279° |
| 2026-04-22 09:46 | 42.20653 | -76.64570 | 19127 ft | 266 kts | 279° |
| 2026-04-22 09:46 | 42.20890 | -76.67061 | 19118 ft | 267 kts | 278° |
| 2026-04-22 09:47 | 42.21124 | -76.69525 | 19120 ft | 267 kts | 278° |
| 2026-04-22 09:47 | 42.21360 | -76.72024 | 19111 ft | 267 kts | 278° |
| 2026-04-22 09:47 | 42.21595 | -76.74505 | 19096 ft | 267 kts | 278° |
| 2026-04-22 09:47 | 42.21827 | -76.76976 | 19088 ft | 267 kts | 278° |
| 2026-04-22 09:48 | 42.22060 | -76.79459 | 19079 ft | 267 kts | 278° |
| 2026-04-22 09:48 | 42.22291 | -76.81919 | 19066 ft | 267 kts | 278° |
| 2026-04-22 09:48 | 42.22524 | -76.84413 | 19075 ft | 267 kts | 278° |
| 2026-04-22 09:48 | 42.22757 | -76.86907 | 19086 ft | 267 kts | 278° |
| 2026-04-22 09:49 | 42.22987 | -76.89384 | 19085 ft | 267 kts | 278° |
| 2026-04-22 09:49 | 42.23217 | -76.91859 | 19071 ft | 267 kts | 278° |
| 2026-04-22 09:49 | 42.23448 | -76.94361 | 19075 ft | 268 kts | 278° |
| 2026-04-22 09:49 | 42.23678 | -76.96845 | 19090 ft | 268 kts | 278° |
| 2026-04-22 09:50 | 42.23907 | -76.99336 | 19095 ft | 268 kts | 278° |
| 2026-04-22 09:50 | 42.24137 | -77.01832 | 19095 ft | 268 kts | 278° |
| 2026-04-22 09:50 | 42.24365 | -77.04319 | 19094 ft | 268 kts | 278° |
| 2026-04-22 09:50 | 42.24592 | -77.06802 | 19091 ft | 268 kts | 278° |
| 2026-04-22 09:51 | 42.24823 | -77.09322 | 19094 ft | 269 kts | 278° |
| 2026-04-22 09:51 | 42.25049 | -77.11811 | 19104 ft | 269 kts | 278° |
| 2026-04-22 09:51 | 42.25274 | -77.14286 | 19097 ft | 269 kts | 278° |
| 2026-04-22 09:51 | 42.25500 | -77.16784 | 19090 ft | 269 kts | 278° |
| 2026-04-22 09:52 | 42.25728 | -77.19308 | 19088 ft | 269 kts | 278° |
| 2026-04-22 09:52 | 42.25952 | -77.21797 | 19085 ft | 269 kts | 278° |
| 2026-04-22 09:52 | 42.26177 | -77.24297 | 19078 ft | 270 kts | 278° |
| 2026-04-22 09:52 | 42.26403 | -77.26813 | 19066 ft | 270 kts | 278° |
| 2026-04-22 09:53 | 42.26629 | -77.29332 | 19084 ft | 270 kts | 278° |
| 2026-04-22 09:53 | 42.26854 | -77.31860 | 19068 ft | 270 kts | 278° |
| 2026-04-22 09:53 | 42.27075 | -77.34344 | 19063 ft | 270 kts | 278° |
| 2026-04-22 09:53 | 42.27301 | -77.36887 | 19057 ft | 270 kts | 278° |
| 2026-04-22 09:54 | 42.27524 | -77.39405 | 19043 ft | 270 kts | 278° |
| 2026-04-22 09:54 | 42.27745 | -77.41906 | 19038 ft | 270 kts | 278° |
| 2026-04-22 09:54 | 42.27966 | -77.44419 | 19034 ft | 271 kts | 278° |
| 2026-04-22 09:54 | 42.28189 | -77.46956 | 19040 ft | 271 kts | 278° |
| 2026-04-22 09:55 | 42.28409 | -77.49464 | 19022 ft | 271 kts | 279° |
| 2026-04-22 09:55 | 42.28628 | -77.51971 | 19010 ft | 271 kts | 278° |
| 2026-04-22 09:55 | 42.28849 | -77.54500 | 19003 ft | 271 kts | 279° |
| 2026-04-22 09:55 | 42.29068 | -77.57018 | 18990 ft | 271 kts | 279° |
| 2026-04-22 09:56 | 42.29288 | -77.59557 | 18982 ft | 271 kts | 279° |
| 2026-04-22 09:56 | 42.29507 | -77.62077 | 18961 ft | 272 kts | 279° |
| 2026-04-22 09:56 | 42.29725 | -77.64607 | 18959 ft | 272 kts | 278° |
| 2026-04-22 09:56 | 42.29945 | -77.67160 | 18959 ft | 272 kts | 278° |
| 2026-04-22 09:57 | 42.30161 | -77.69677 | 18959 ft | 272 kts | 278° |
| 2026-04-22 09:57 | 42.30376 | -77.72199 | 18946 ft | 272 kts | 278° |
| 2026-04-22 09:57 | 42.30596 | -77.74766 | 18943 ft | 272 kts | 278° |
| 2026-04-22 09:57 | 42.30810 | -77.77288 | 18941 ft | 272 kts | 278° |
| 2026-04-22 09:58 | 42.31027 | -77.79836 | 18950 ft | 273 kts | 278° |
| 2026-04-22 09:58 | 42.31244 | -77.82395 | 18947 ft | 273 kts | 278° |
| 2026-04-22 09:58 | 42.31457 | -77.84915 | 18946 ft | 273 kts | 278° |
| 2026-04-22 09:58 | 42.31673 | -77.87472 | 18956 ft | 273 kts | 278° |
| 2026-04-22 09:59 | 42.31887 | -77.90029 | 18948 ft | 273 kts | 278° |
| 2026-04-22 09:59 | 42.32099 | -77.92556 | 18939 ft | 274 kts | 278° |
| 2026-04-22 09:59 | 42.32314 | -77.95126 | 18940 ft | 274 kts | 278° |
| 2026-04-22 09:59 | 42.32527 | -77.97690 | 18941 ft | 274 kts | 278° |
| 2026-04-22 10:00 | 42.32741 | -78.00256 | 18929 ft | 274 kts | 278° |
| 2026-04-22 10:00 | 42.32951 | -78.02790 | 18927 ft | 275 kts | 278° |
| 2026-04-22 10:00 | 42.33165 | -78.05377 | 18925 ft | 275 kts | 279° |
| 2026-04-22 10:00 | 42.33376 | -78.07935 | 18922 ft | 275 kts | 278° |
| 2026-04-22 10:01 | 42.33586 | -78.10492 | 18915 ft | 275 kts | 279° |
| 2026-04-22 10:01 | 42.33798 | -78.13079 | 18915 ft | 275 kts | 279° |
| 2026-04-22 10:01 | 42.34009 | -78.15646 | 18925 ft | 276 kts | 278° |
| 2026-04-22 10:01 | 42.34218 | -78.18211 | 18915 ft | 276 kts | 278° |
| 2026-04-22 10:02 | 42.34428 | -78.20798 | 18905 ft | 276 kts | 278° |
| 2026-04-22 10:02 | 42.34636 | -78.23372 | 18905 ft | 276 kts | 278° |
| 2026-04-22 10:02 | 42.34845 | -78.25949 | 18908 ft | 276 kts | 278° |
| 2026-04-22 10:02 | 42.35054 | -78.28539 | 18899 ft | 276 kts | 279° |
| 2026-04-22 10:03 | 42.35260 | -78.31104 | 18890 ft | 277 kts | 279° |
| 2026-04-22 10:03 | 42.35469 | -78.33710 | 18888 ft | 277 kts | 279° |
| 2026-04-22 10:03 | 42.35676 | -78.36306 | 18879 ft | 277 kts | 278° |
| 2026-04-22 10:03 | 42.35880 | -78.38864 | 18871 ft | 277 kts | 279° |
| 2026-04-22 10:04 | 42.36087 | -78.41463 | 18864 ft | 277 kts | 278° |
| 2026-04-22 10:04 | 42.36291 | -78.44044 | 18865 ft | 277 kts | 279° |
| 2026-04-22 10:04 | 42.36496 | -78.46641 | 18856 ft | 277 kts | 279° |
| 2026-04-22 10:04 | 42.36700 | -78.49226 | 18855 ft | 277 kts | 279° |
| 2026-04-22 10:05 | 42.36902 | -78.51801 | 18840 ft | 278 kts | 279° |
| 2026-04-22 10:05 | 42.37107 | -78.54413 | 18834 ft | 278 kts | 279° |
| 2026-04-22 10:05 | 42.37308 | -78.56991 | 18828 ft | 278 kts | 279° |
| 2026-04-22 10:05 | 42.37510 | -78.59589 | 18823 ft | 278 kts | 279° |
| 2026-04-22 10:06 | 42.37712 | -78.62186 | 18813 ft | 278 kts | 279° |
| 2026-04-22 10:06 | 42.37913 | -78.64784 | 18807 ft | 278 kts | 278° |
| 2026-04-22 10:06 | 42.38114 | -78.67384 | 18805 ft | 278 kts | 278° |
| 2026-04-22 10:06 | 42.38314 | -78.69988 | 18808 ft | 278 kts | 278° |
| 2026-04-22 10:07 | 42.38511 | -78.72557 | 18799 ft | 279 kts | 278° |
| 2026-04-22 10:07 | 42.38712 | -78.75176 | 18802 ft | 279 kts | 278° |
| 2026-04-22 10:07 | 42.38911 | -78.77788 | 18807 ft | 279 kts | 278° |
| 2026-04-22 10:07 | 42.39109 | -78.80398 | 18802 ft | 279 kts | 278° |
| 2026-04-22 10:08 | 42.39306 | -78.83003 | 18805 ft | 279 kts | 278° |
| 2026-04-22 10:08 | 42.39503 | -78.85603 | 18809 ft | 279 kts | 278° |
| 2026-04-22 10:08 | 42.39698 | -78.88200 | 18801 ft | 279 kts | 278° |
| 2026-04-22 10:08 | 42.39895 | -78.90823 | 18802 ft | 279 kts | 278° |
| 2026-04-22 10:09 | 42.40075 | -78.93448 | 18803 ft | 280 kts | 277° |
| 2026-04-22 10:09 | 42.40249 | -78.96054 | 18799 ft | 280 kts | 278° |
| 2026-04-22 10:09 | 42.40424 | -78.98677 | 18800 ft | 280 kts | 278° |
| 2026-04-22 10:09 | 42.40600 | -79.01311 | 18795 ft | 280 kts | 278° |
| 2026-04-22 10:10 | 42.40773 | -79.03925 | 18796 ft | 280 kts | 277° |
| 2026-04-22 10:10 | 42.40947 | -79.06556 | 18795 ft | 280 kts | 278° |
| 2026-04-22 10:10 | 42.41119 | -79.09154 | 18783 ft | 280 kts | 278° |
| 2026-04-22 10:10 | 42.41291 | -79.11790 | 18758 ft | 280 kts | 278° |
| 2026-04-22 10:11 | 42.41462 | -79.14403 | 18745 ft | 281 kts | 278° |
| 2026-04-22 10:11 | 42.41633 | -79.17024 | 18743 ft | 281 kts | 278° |
| 2026-04-22 10:11 | 42.41806 | -79.19681 | 18752 ft | 281 kts | 278° |
| 2026-04-22 10:11 | 42.41976 | -79.22304 | 18733 ft | 281 kts | 278° |
| 2026-04-22 10:12 | 42.42146 | -79.24937 | 18720 ft | 281 kts | 278° |
| 2026-04-22 10:12 | 42.42315 | -79.27564 | 18708 ft | 281 kts | 278° |
| 2026-04-22 10:12 | 42.42482 | -79.30171 | 18709 ft | 281 kts | 278° |
| 2026-04-22 10:12 | 42.42650 | -79.32815 | 18722 ft | 281 kts | 278° |
| 2026-04-22 10:13 | 42.42816 | -79.35432 | 18727 ft | 281 kts | 278° |
| 2026-04-22 10:13 | 42.42985 | -79.38084 | 18718 ft | 282 kts | 278° |
| 2026-04-22 10:13 | 42.43151 | -79.40718 | 18701 ft | 282 kts | 278° |
| 2026-04-22 10:13 | 42.43316 | -79.43335 | 18702 ft | 282 kts | 278° |
| 2026-04-22 10:14 | 42.43481 | -79.45982 | 18707 ft | 282 kts | 278° |
| 2026-04-22 10:14 | 42.43646 | -79.48618 | 18716 ft | 282 kts | 278° |
| 2026-04-22 10:14 | 42.43811 | -79.51262 | 18718 ft | 282 kts | 278° |
| 2026-04-22 10:14 | 42.43975 | -79.53917 | 18718 ft | 282 kts | 278° |
| 2026-04-22 10:15 | 42.44139 | -79.56561 | 18700 ft | 282 kts | 278° |
| 2026-04-22 10:15 | 42.44300 | -79.59176 | 18698 ft | 282 kts | 278° |
| 2026-04-22 10:15 | 42.44462 | -79.61830 | 18694 ft | 283 kts | 278° |
| 2026-04-22 10:15 | 42.44623 | -79.64471 | 18685 ft | 283 kts | 278° |
| 2026-04-22 10:16 | 42.44785 | -79.67141 | 18683 ft | 283 kts | 278° |
| 2026-04-22 10:16 | 42.44944 | -79.69760 | 18688 ft | 283 kts | 277° |
| 2026-04-22 10:16 | 42.45106 | -79.72446 | 18684 ft | 283 kts | 278° |
| 2026-04-22 10:16 | 42.45265 | -79.75096 | 18687 ft | 283 kts | 278° |
| 2026-04-22 10:17 | 42.45424 | -79.77750 | 18690 ft | 283 kts | 278° |
| 2026-04-22 10:17 | 42.45583 | -79.80402 | 18686 ft | 283 kts | 278° |
| 2026-04-22 10:17 | 42.45741 | -79.83059 | 18681 ft | 283 kts | 277° |
| 2026-04-22 10:17 | 42.45897 | -79.85702 | 18677 ft | 284 kts | 277° |
| 2026-04-22 10:18 | 42.46054 | -79.88364 | 18674 ft | 284 kts | 277° |
| 2026-04-22 10:18 | 42.46212 | -79.91045 | 18679 ft | 284 kts | 277° |
| 2026-04-22 10:18 | 42.46365 | -79.93679 | 18682 ft | 284 kts | 277° |
| 2026-04-22 10:18 | 42.46521 | -79.96355 | 18675 ft | 284 kts | 277° |
| 2026-04-22 10:19 | 42.46674 | -79.99005 | 18672 ft | 284 kts | 278° |
| 2026-04-22 10:19 | 42.46829 | -80.01681 | 18673 ft | 284 kts | 278° |
| 2026-04-22 10:19 | 42.46981 | -80.04323 | 18665 ft | 284 kts | 278° |
| 2026-04-22 10:19 | 42.47134 | -80.07001 | 18665 ft | 284 kts | 278° |
| 2026-04-22 10:20 | 42.47287 | -80.09672 | 18668 ft | 285 kts | 278° |
| 2026-04-22 10:20 | 42.47436 | -80.12314 | 18670 ft | 285 kts | 278° |
| 2026-04-22 10:20 | 42.47589 | -80.15009 | 18667 ft | 285 kts | 278° |
| 2026-04-22 10:20 | 42.47740 | -80.17678 | 18669 ft | 285 kts | 278° |
| 2026-04-22 10:21 | 42.47889 | -80.20346 | 18667 ft | 285 kts | 278° |
| 2026-04-22 10:21 | 42.48038 | -80.23010 | 18659 ft | 285 kts | 277° |
| 2026-04-22 10:21 | 42.48185 | -80.25659 | 18660 ft | 285 kts | 277° |
| 2026-04-22 10:21 | 42.48333 | -80.28327 | 18666 ft | 285 kts | 278° |
| 2026-04-22 10:22 | 42.48481 | -80.31020 | 18667 ft | 285 kts | 277° |
| 2026-04-22 10:22 | 42.48628 | -80.33694 | 18661 ft | 285 kts | 278° |
| 2026-04-22 10:22 | 42.48774 | -80.36359 | 18650 ft | 285 kts | 277° |
| 2026-04-22 10:22 | 42.48919 | -80.39025 | 18645 ft | 285 kts | 278° |
| 2026-04-22 10:23 | 42.49066 | -80.41727 | 18630 ft | 285 kts | 278° |
| 2026-04-22 10:23 | 42.49208 | -80.44373 | 18626 ft | 285 kts | 278° |
| 2026-04-22 10:23 | 42.49353 | -80.47057 | 18624 ft | 285 kts | 278° |
| 2026-04-22 10:23 | 42.49497 | -80.49741 | 18623 ft | 286 kts | 278° |
| 2026-04-22 10:24 | 42.49639 | -80.52426 | 18623 ft | 286 kts | 278° |
| 2026-04-22 10:24 | 42.49781 | -80.55089 | 18629 ft | 286 kts | 278° |
| 2026-04-22 10:24 | 42.49923 | -80.57788 | 18628 ft | 286 kts | 278° |
| 2026-04-22 10:24 | 42.50063 | -80.60456 | 18623 ft | 286 kts | 278° |
| 2026-04-22 10:25 | 42.50204 | -80.63135 | 18612 ft | 286 kts | 278° |
| 2026-04-22 10:25 | 42.50344 | -80.65818 | 18611 ft | 286 kts | 277° |
| 2026-04-22 10:25 | 42.50478 | -80.68503 | 18611 ft | 287 kts | 276° |
| 2026-04-22 10:25 | 42.50567 | -80.71217 | 18619 ft | 287 kts | 276° |
| 2026-04-22 10:26 | 42.50652 | -80.73915 | 18620 ft | 287 kts | 276° |
| 2026-04-22 10:26 | 42.50737 | -80.76598 | 18619 ft | 287 kts | 276° |
| 2026-04-22 10:26 | 42.50821 | -80.79288 | 18619 ft | 287 kts | 276° |
| 2026-04-22 10:26 | 42.50906 | -80.82020 | 18623 ft | 288 kts | 276° |
| 2026-04-22 10:27 | 42.50991 | -80.84721 | 18629 ft | 288 kts | 276° |
| 2026-04-22 10:27 | 42.51073 | -80.87399 | 18622 ft | 288 kts | 276° |
| 2026-04-22 10:27 | 42.51155 | -80.90091 | 18623 ft | 288 kts | 276° |
| 2026-04-22 10:27 | 42.51237 | -80.92802 | 18622 ft | 288 kts | 276° |
| 2026-04-22 10:28 | 42.51319 | -80.95508 | 18619 ft | 288 kts | 276° |
| 2026-04-22 10:28 | 42.51400 | -80.98239 | 18610 ft | 288 kts | 275° |
| 2026-04-22 10:28 | 42.51480 | -81.00941 | 18592 ft | 288 kts | 276° |
| 2026-04-22 10:28 | 42.51559 | -81.03636 | 18660 ft | 285 kts | 276° |
| 2026-04-22 10:29 | 42.51636 | -81.06310 | 18778 ft | 280 kts | 276° |
| 2026-04-22 10:29 | 42.51711 | -81.08920 | 18909 ft | 276 kts | 276° |
| 2026-04-22 10:29 | 42.51784 | -81.11476 | 19128 ft | 267 kts | 276° |
| 2026-04-22 10:29 | 42.51851 | -81.13895 | 19481 ft | 255 kts | 276° |
| 2026-04-22 10:30 | 42.51917 | -81.16270 | 19555 ft | 253 kts | 276° |
| 2026-04-22 10:30 | 42.51986 | -81.18667 | 19552 ft | 255 kts | 276° |
| 2026-04-22 10:30 | 42.52054 | -81.21070 | 19561 ft | 256 kts | 276° |
| 2026-04-22 10:30 | 42.52121 | -81.23486 | 19570 ft | 257 kts | 276° |
| 2026-04-22 10:31 | 42.52188 | -81.25883 | 19575 ft | 258 kts | 276° |
| 2026-04-22 10:31 | 42.52349 | -81.28301 | 19573 ft | 257 kts | 283° |
| 2026-04-22 10:31 | 42.52643 | -81.30681 | 19572 ft | 257 kts | 282° |
| 2026-04-22 10:31 | 42.52924 | -81.33075 | 19569 ft | 258 kts | 282° |
| 2026-04-22 10:32 | 42.53204 | -81.35480 | 19564 ft | 259 kts | 282° |
| 2026-04-22 10:32 | 42.53483 | -81.37896 | 19558 ft | 260 kts | 282° |
| 2026-04-22 10:32 | 42.53761 | -81.40318 | 19554 ft | 261 kts | 282° |
| 2026-04-22 10:32 | 42.54039 | -81.42745 | 19553 ft | 262 kts | 282° |
| 2026-04-22 10:33 | 42.54318 | -81.45194 | 19545 ft | 263 kts | 282° |
| 2026-04-22 10:33 | 42.54597 | -81.47646 | 19539 ft | 264 kts | 282° |
| 2026-04-22 10:33 | 42.54876 | -81.50106 | 19537 ft | 265 kts | 282° |
| 2026-04-22 10:33 | 42.55153 | -81.52549 | 19527 ft | 265 kts | 282° |
| 2026-04-22 10:34 | 42.55436 | -81.55052 | 19519 ft | 266 kts | 282° |
| 2026-04-22 10:34 | 42.55712 | -81.57501 | 19513 ft | 267 kts | 282° |
| 2026-04-22 10:34 | 42.55995 | -81.60021 | 19497 ft | 268 kts | 282° |
| 2026-04-22 10:34 | 42.56274 | -81.62502 | 19488 ft | 268 kts | 282° |
| 2026-04-22 10:35 | 42.56554 | -81.65003 | 19481 ft | 269 kts | 282° |
| 2026-04-22 10:35 | 42.56838 | -81.67534 | 19478 ft | 270 kts | 282° |
| 2026-04-22 10:35 | 42.57118 | -81.70046 | 19475 ft | 271 kts | 282° |
| 2026-04-22 10:35 | 42.57397 | -81.72550 | 19470 ft | 271 kts | 281° |
| 2026-04-22 10:36 | 42.57681 | -81.75108 | 19466 ft | 272 kts | 281° |
| 2026-04-22 10:36 | 42.57963 | -81.77651 | 19463 ft | 273 kts | 282° |
| 2026-04-22 10:36 | 42.58245 | -81.80193 | 19465 ft | 273 kts | 282° |
| 2026-04-22 10:36 | 42.58523 | -81.82710 | 19472 ft | 274 kts | 282° |
| 2026-04-22 10:37 | 42.58805 | -81.85273 | 19477 ft | 275 kts | 282° |
| 2026-04-22 10:37 | 42.59369 | -81.90396 | 19471 ft | 276 kts | 281° |
| 2026-04-22 10:37 | 42.59651 | -81.92976 | 19464 ft | 276 kts | 282° |
| 2026-04-22 10:38 | 42.59934 | -81.95564 | 19471 ft | 277 kts | 281° |
| 2026-04-22 10:38 | 42.60215 | -81.98142 | 19466 ft | 277 kts | 281° |
| 2026-04-22 10:38 | 42.60495 | -82.00712 | 19465 ft | 278 kts | 281° |
| 2026-04-22 10:38 | 42.60777 | -82.03313 | 19466 ft | 278 kts | 281° |
| 2026-04-22 10:39 | 42.61058 | -82.05914 | 19460 ft | 278 kts | 281° |
| 2026-04-22 10:39 | 42.61338 | -82.08500 | 19458 ft | 279 kts | 281° |
| 2026-04-22 10:39 | 42.61618 | -82.11098 | 19464 ft | 279 kts | 282° |
| 2026-04-22 10:39 | 42.61901 | -82.13719 | 19452 ft | 280 kts | 281° |
| 2026-04-22 10:40 | 42.62179 | -82.16310 | 19444 ft | 280 kts | 281° |
| 2026-04-22 10:40 | 42.62461 | -82.18948 | 19440 ft | 280 kts | 281° |
| 2026-04-22 10:40 | 42.62742 | -82.21571 | 19439 ft | 281 kts | 281° |
| 2026-04-22 10:40 | 42.63018 | -82.24163 | 19438 ft | 281 kts | 281° |
| 2026-04-22 10:41 | 42.63298 | -82.26782 | 19433 ft | 281 kts | 281° |
| 2026-04-22 10:41 | 42.63579 | -82.29433 | 19433 ft | 281 kts | 281° |
| 2026-04-22 10:41 | 42.63856 | -82.32050 | 19434 ft | 281 kts | 281° |
| 2026-04-22 10:41 | 42.64132 | -82.34660 | 19437 ft | 281 kts | 281° |
| 2026-04-22 10:42 | 42.64410 | -82.37295 | 19452 ft | 281 kts | 281° |
| 2026-04-22 10:42 | 42.64688 | -82.39937 | 19448 ft | 281 kts | 281° |
| 2026-04-22 10:42 | 42.64962 | -82.42544 | 19445 ft | 281 kts | 281° |
| 2026-04-22 10:42 | 42.65236 | -82.45155 | 19445 ft | 281 kts | 282° |
| 2026-04-22 10:43 | 42.65511 | -82.47791 | 19446 ft | 281 kts | 281° |
| 2026-04-22 10:43 | 42.65785 | -82.50415 | 19447 ft | 281 kts | 281° |
| 2026-04-22 10:43 | 42.66060 | -82.53059 | 19444 ft | 281 kts | 281° |
| 2026-04-22 10:43 | 42.66331 | -82.55666 | 19446 ft | 281 kts | 281° |
| 2026-04-22 10:44 | 42.66603 | -82.58292 | 19444 ft | 280 kts | 281° |
| 2026-04-22 10:44 | 42.66873 | -82.60905 | 19454 ft | 280 kts | 281° |
| 2026-04-22 10:44 | 42.67143 | -82.63526 | 19450 ft | 281 kts | 281° |
| 2026-04-22 10:44 | 42.67411 | -82.66135 | 19450 ft | 281 kts | 281° |
| 2026-04-22 10:45 | 42.67684 | -82.68790 | 19443 ft | 281 kts | 281° |
| 2026-04-22 10:45 | 42.67951 | -82.71401 | 19453 ft | 281 kts | 281° |
| 2026-04-22 10:45 | 42.68219 | -82.74026 | 19434 ft | 281 kts | 281° |
| 2026-04-22 10:45 | 42.68486 | -82.76658 | 19451 ft | 280 kts | 281° |
| 2026-04-22 10:46 | 42.68748 | -82.79256 | 19456 ft | 280 kts | 281° |
| 2026-04-22 10:46 | 42.69013 | -82.81891 | 19457 ft | 280 kts | 281° |
| 2026-04-22 10:46 | 42.69276 | -82.84503 | 19454 ft | 281 kts | 281° |
| 2026-04-22 10:46 | 42.69540 | -82.87137 | 19456 ft | 281 kts | 281° |
| 2026-04-22 10:47 | 42.69804 | -82.89774 | 19447 ft | 281 kts | 281° |
| 2026-04-22 10:47 | 42.70066 | -82.92403 | 19451 ft | 281 kts | 281° |
| 2026-04-22 10:47 | 42.70329 | -82.95052 | 19450 ft | 281 kts | 281° |
| 2026-04-22 10:47 | 42.70591 | -82.97684 | 19459 ft | 281 kts | 281° |
| 2026-04-22 10:48 | 42.70853 | -83.00336 | 19458 ft | 282 kts | 281° |
| 2026-04-22 10:48 | 42.71126 | -83.02949 | 19461 ft | 281 kts | 282° |
| 2026-04-22 10:48 | 42.71442 | -83.05582 | 19458 ft | 282 kts | 282° |
| 2026-04-22 10:48 | 42.71751 | -83.08202 | 19462 ft | 282 kts | 282° |
| 2026-04-22 10:49 | 42.72063 | -83.10844 | 19454 ft | 282 kts | 282° |
| 2026-04-22 10:49 | 42.72370 | -83.13454 | 19465 ft | 282 kts | 282° |
| 2026-04-22 10:49 | 42.72679 | -83.16093 | 19460 ft | 282 kts | 282° |
| 2026-04-22 10:49 | 42.72988 | -83.18733 | 19460 ft | 282 kts | 282° |
| 2026-04-22 10:50 | 42.73294 | -83.21350 | 19461 ft | 282 kts | 282° |
| 2026-04-22 10:50 | 42.73601 | -83.23988 | 19458 ft | 282 kts | 282° |
| 2026-04-22 10:50 | 42.73906 | -83.26608 | 19459 ft | 282 kts | 282° |
| 2026-04-22 10:50 | 42.74211 | -83.29240 | 19457 ft | 282 kts | 282° |
| 2026-04-22 10:51 | 42.74519 | -83.31892 | 19464 ft | 283 kts | 282° |
| 2026-04-22 10:51 | 42.74821 | -83.34512 | 19453 ft | 283 kts | 282° |
| 2026-04-22 10:51 | 42.75126 | -83.37151 | 19463 ft | 282 kts | 282° |
| 2026-04-22 10:51 | 42.75429 | -83.39790 | 19459 ft | 283 kts | 282° |
| 2026-04-22 10:52 | 42.75734 | -83.42445 | 19456 ft | 283 kts | 282° |
| 2026-04-22 10:52 | 42.76034 | -83.45063 | 19455 ft | 283 kts | 282° |
| 2026-04-22 10:52 | 42.76339 | -83.47727 | 19460 ft | 283 kts | 282° |
| 2026-04-22 10:52 | 42.76643 | -83.50391 | 19455 ft | 283 kts | 282° |
| 2026-04-22 10:53 | 42.76942 | -83.53024 | 19455 ft | 283 kts | 282° |
| 2026-04-22 10:53 | 42.77245 | -83.55689 | 19456 ft | 283 kts | 282° |
| 2026-04-22 10:53 | 42.77542 | -83.58311 | 19453 ft | 283 kts | 282° |
| 2026-04-22 10:53 | 42.77844 | -83.60973 | 19456 ft | 283 kts | 282° |
| 2026-04-22 10:54 | 42.78144 | -83.63640 | 19452 ft | 284 kts | 282° |
| 2026-04-22 10:54 | 42.78444 | -83.66293 | 19452 ft | 283 kts | 282° |
| 2026-04-22 10:54 | 42.78743 | -83.68957 | 19460 ft | 283 kts | 282° |
| 2026-04-22 10:54 | 42.79041 | -83.71609 | 19459 ft | 284 kts | 282° |
| 2026-04-22 10:55 | 42.79337 | -83.74255 | 19462 ft | 284 kts | 282° |
| 2026-04-22 10:55 | 42.79637 | -83.76939 | 19456 ft | 285 kts | 282° |
| 2026-04-22 10:55 | 42.79932 | -83.79586 | 19447 ft | 285 kts | 281° |
| 2026-04-22 10:55 | 42.80229 | -83.82263 | 19468 ft | 285 kts | 282° |
| 2026-04-22 10:56 | 42.80525 | -83.84927 | 19458 ft | 285 kts | 281° |
| 2026-04-22 10:56 | 42.80822 | -83.87606 | 19457 ft | 285 kts | 282° |
| 2026-04-22 10:56 | 42.81117 | -83.90284 | 19454 ft | 286 kts | 282° |
| 2026-04-22 10:56 | 42.81414 | -83.92973 | 19454 ft | 286 kts | 282° |
| 2026-04-22 10:57 | 42.81706 | -83.95630 | 19454 ft | 286 kts | 281° |
| 2026-04-22 10:57 | 42.81998 | -83.98292 | 19452 ft | 286 kts | 281° |
| 2026-04-22 10:57 | 42.82293 | -84.00992 | 19452 ft | 286 kts | 282° |
| 2026-04-22 10:57 | 42.82591 | -84.03716 | 19453 ft | 286 kts | 282° |
| 2026-04-22 10:58 | 42.82879 | -84.06368 | 19453 ft | 286 kts | 282° |
| 2026-04-22 10:58 | 42.83171 | -84.09043 | 19448 ft | 286 kts | 282° |
| 2026-04-22 10:58 | 42.83462 | -84.11729 | 19445 ft | 286 kts | 282° |
| 2026-04-22 10:58 | 42.83752 | -84.14401 | 19454 ft | 286 kts | 282° |
| 2026-04-22 10:59 | 42.84040 | -84.17066 | 19450 ft | 286 kts | 282° |
| 2026-04-22 10:59 | 42.84329 | -84.19754 | 19448 ft | 286 kts | 281° |
| 2026-04-22 10:59 | 42.84616 | -84.22422 | 19437 ft | 286 kts | 282° |
| 2026-04-22 10:59 | 42.84904 | -84.25107 | 19467 ft | 285 kts | 282° |
| 2026-04-22 11:00 | 42.85189 | -84.27769 | 19448 ft | 286 kts | 282° |
| 2026-04-22 11:00 | 42.85473 | -84.30431 | 19436 ft | 286 kts | 282° |
| 2026-04-22 11:00 | 42.85759 | -84.33121 | 19456 ft | 284 kts | 282° |
| 2026-04-22 11:00 | 42.86043 | -84.35789 | 19448 ft | 285 kts | 282° |
| 2026-04-22 11:01 | 42.86328 | -84.38474 | 19454 ft | 284 kts | 282° |
| 2026-04-22 11:01 | 42.86606 | -84.41102 | 19453 ft | 285 kts | 282° |
| 2026-04-22 11:01 | 42.86888 | -84.43774 | 19438 ft | 285 kts | 282° |
| 2026-04-22 11:01 | 42.87170 | -84.46452 | 19452 ft | 284 kts | 282° |
| 2026-04-22 11:02 | 42.87452 | -84.49126 | 19456 ft | 284 kts | 282° |
| 2026-04-22 11:02 | 42.87729 | -84.51775 | 19447 ft | 284 kts | 282° |
| 2026-04-22 11:02 | 42.88008 | -84.54440 | 19469 ft | 284 kts | 282° |
| 2026-04-22 11:02 | 42.88220 | -84.57114 | 19458 ft | 288 kts | 272° |
| 2026-04-22 11:03 | 42.87835 | -84.59824 | 19479 ft | 293 kts | 257° |
| 2026-04-22 11:03 | 42.87192 | -84.62449 | 19454 ft | 294 kts | 257° |
| 2026-04-22 11:03 | 42.86550 | -84.65093 | 19457 ft | 295 kts | 256° |
| 2026-04-22 11:03 | 42.85890 | -84.67742 | 19439 ft | 295 kts | 256° |
| 2026-04-22 11:04 | 42.85229 | -84.70366 | 19437 ft | 295 kts | 256° |
| 2026-04-22 11:04 | 42.84562 | -84.72993 | 19446 ft | 294 kts | 256° |
| 2026-04-22 11:04 | 42.83883 | -84.75655 | 19455 ft | 295 kts | 256° |
| 2026-04-22 11:04 | 42.83209 | -84.78292 | 19443 ft | 296 kts | 256° |
| 2026-04-22 11:05 | 42.82533 | -84.80927 | 19430 ft | 296 kts | 256° |
| 2026-04-22 11:05 | 42.81849 | -84.83588 | 19428 ft | 295 kts | 256° |
| 2026-04-22 11:05 | 42.81175 | -84.86207 | 19442 ft | 295 kts | 256° |
| 2026-04-22 11:05 | 42.80496 | -84.88844 | 19435 ft | 295 kts | 256° |
| 2026-04-22 11:06 | 42.79812 | -84.91496 | 19425 ft | 295 kts | 256° |
| 2026-04-22 11:06 | 42.79138 | -84.94106 | 19443 ft | 295 kts | 256° |
| 2026-04-22 11:06 | 42.78451 | -84.96764 | 19445 ft | 295 kts | 256° |
| 2026-04-22 11:06 | 42.77776 | -84.99373 | 19442 ft | 295 kts | 256° |
| 2026-04-22 11:07 | 42.77097 | -85.01997 | 19433 ft | 295 kts | 255° |
| 2026-04-22 11:07 | 42.76411 | -85.04637 | 19438 ft | 294 kts | 255° |
| 2026-04-22 11:07 | 42.75730 | -85.07260 | 19435 ft | 295 kts | 256° |
| 2026-04-22 11:07 | 42.75048 | -85.09885 | 19449 ft | 295 kts | 256° |
| 2026-04-22 11:08 | 42.74366 | -85.12506 | 19440 ft | 295 kts | 256° |
| 2026-04-22 11:08 | 42.73676 | -85.15157 | 19436 ft | 295 kts | 256° |
| 2026-04-22 11:08 | 42.72995 | -85.17769 | 19454 ft | 295 kts | 256° |
| 2026-04-22 11:08 | 42.72543 | -85.20453 | 19448 ft | 288 kts | 271° |
| 2026-04-22 11:09 | 42.72583 | -85.23157 | 19442 ft | 286 kts | 278° |
| 2026-04-22 11:09 | 42.72733 | -85.25814 | 19447 ft | 286 kts | 277° |
| 2026-04-22 11:09 | 42.72818 | -85.28550 | 19441 ft | 287 kts | 276° |
| 2026-04-22 11:09 | 42.72911 | -85.31220 | 19445 ft | 287 kts | 277° |
| 2026-04-22 11:10 | 42.73016 | -85.33964 | 19459 ft | 287 kts | 277° |
| 2026-04-22 11:10 | 42.73124 | -85.36662 | 19445 ft | 288 kts | 277° |
| 2026-04-22 11:10 | 42.73233 | -85.39358 | 19443 ft | 288 kts | 277° |
| 2026-04-22 11:10 | 42.73344 | -85.42073 | 19436 ft | 288 kts | 277° |
| 2026-04-22 11:11 | 42.73455 | -85.44794 | 19448 ft | 288 kts | 277° |
| 2026-04-22 11:11 | 42.73567 | -85.47512 | 19433 ft | 288 kts | 277° |
| 2026-04-22 11:11 | 42.73677 | -85.50204 | 19459 ft | 288 kts | 277° |
| 2026-04-22 11:11 | 42.73788 | -85.52942 | 19430 ft | 289 kts | 277° |
| 2026-04-22 11:12 | 42.73897 | -85.55634 | 19431 ft | 288 kts | 277° |
| 2026-04-22 11:12 | 42.74005 | -85.58344 | 19434 ft | 288 kts | 277° |